^^
Saratoga-Weather Station Historical Data
Daily Summary for April 26, 2020 Units:  Both    English   Metric
Daily Weekly Monthly Yearly Custom
  High: Low: Average:
Temperature: 35.2 °F /  1.8 °C 31.3 °F /  -0.4 °C 33.4 °F /  0.8 °C
Dew Point: 33.3 °F /  0.7 °C 29.3 °F /  -1.5 °C 31.6 °F /  -0.2 °C
Humidity: 95% 90% 93%
Wind Speed: 6mph /  9.7km/h - 1.1mph /  1.8km/h
Wind Gust: 9mph /  14.5km/h - -
Wind- - West
Pressure: 30.3 in /  1026.8 hPa 30.3 in /  1025.4 hPa -
Precipitation: 0 in /  0.0 mm    
Historical Graphs
 
 
Tabular Data for April 26, 2020
Time Temperature Dew Point Pressure Wind Wind Speed Wind Gust Humidity Rainfall Rate (Hourly) solar
00:00 34.3 °F /  1.3 °C 31.6 °F /  -0.2 °C 30.3in /  1025.7hPa WSW 0.9mph /  1.4km/h 3mph /  4.8km/h 90% 0in /  0.0mm 0 W/m2
00:05 34.3 °F /  1.3 °C 31.6 °F /  -0.2 °C 30.3in /  1025.7hPa West 0.9mph /  1.4km/h 2mph /  3.2km/h 90% 0in /  0.0mm 0 W/m2
00:10 34.3 °F /  1.3 °C 31.6 °F /  -0.2 °C 30.3in /  1025.7hPa Calm   3mph /  4.8km/h 90% 0in /  0.0mm 0 W/m2
00:15 34.2 °F /  1.2 °C 31.5 °F /  -0.3 °C 30.3in /  1025.7hPa Calm   2mph /  3.2km/h 90% 0in /  0.0mm 0 W/m2
00:20 34 °F /  1.1 °C 31.3 °F /  -0.4 °C 30.3in /  1025.7hPa Calm   2mph /  3.2km/h 90% 0in /  0.0mm 0 W/m2
00:25 33.6 °F /  0.9 °C 31.3 °F /  -0.4 °C 30.3in /  1025.7hPa Calm   3mph /  4.8km/h 91% 0in /  0.0mm 0 W/m2
00:30 33.6 °F /  0.9 °C 31.3 °F /  -0.4 °C 30.3in /  1025.7hPa West 2mph /  3.2km/h 3mph /  4.8km/h 91% 0in /  0.0mm 0 W/m2
00:35 34 °F /  1.1 °C 31.8 °F /  -0.1 °C 30.3in /  1025.7hPa West 2mph /  3.2km/h 3mph /  4.8km/h 92% 0in /  0.0mm 0 W/m2
00:40 34 °F /  1.1 °C 31.6 °F /  -0.2 °C 30.3in /  1025.4hPa WSW 0.9mph /  1.4km/h 2mph /  3.2km/h 91% 0in /  0.0mm 0 W/m2
00:45 34 °F /  1.1 °C 31.6 °F /  -0.2 °C 30.3in /  1025.4hPa West 0.9mph /  1.4km/h 3mph /  4.8km/h 91% 0in /  0.0mm 0 W/m2
00:50 34 °F /  1.1 °C 31.8 °F /  -0.1 °C 30.3in /  1025.4hPa WSW 2mph /  3.2km/h 3mph /  4.8km/h 92% 0in /  0.0mm 0 W/m2
00:55 34 °F /  1.1 °C 31.8 °F /  -0.1 °C 30.3in /  1025.4hPa Calm   3mph /  4.8km/h 92% 0in /  0.0mm 0 W/m2
01:00 34 °F /  1.1 °C 31.6 °F /  -0.2 °C 30.3in /  1025.4hPa Calm     91% 0in /  0.0mm 0 W/m2
01:05 33.6 °F /  0.9 °C 31.3 °F /  -0.4 °C 30.3in /  1025.7hPa Calm   3mph /  4.8km/h 91% 0in /  0.0mm 0 W/m2
01:10 33.3 °F /  0.7 °C 30.9 °F /  -0.6 °C 30.3in /  1025.7hPa Calm     91% 0in /  0.0mm 0 W/m2
01:15 33.1 °F /  0.6 °C 30.7 °F /  -0.7 °C 30.3in /  1025.7hPa Calm     91% 0in /  0.0mm 0 W/m2
01:20 32.7 °F /  0.4 °C 30.4 °F /  -0.9 °C 30.3in /  1025.7hPa Calm     91% 0in /  0.0mm 0 W/m2
01:25 32.4 °F /  0.2 °C 30 °F /  -1.1 °C 30.3in /  1025.7hPa West 0.9mph /  1.4km/h 2mph /  3.2km/h 91% 0in /  0.0mm 0 W/m2
01:30 32 °F /  0 °C 29.7 °F /  -1.3 °C 30.3in /  1025.7hPa Calm     91% 0in /  0.0mm 0 W/m2
01:35 31.6 °F /  -0.2 °C 29.3 °F /  -1.5 °C 30.3in /  1025.7hPa Calm   2mph /  3.2km/h 91% 0in /  0.0mm 0 W/m2
01:40 31.6 °F /  -0.2 °C 29.7 °F /  -1.3 °C 30.3in /  1025.7hPa Calm   1mph /  1.6km/h 92% 0in /  0.0mm 0 W/m2
01:46 31.5 °F /  -0.3 °C 29.5 °F /  -1.4 °C 30.3in /  1025.7hPa Calm     92% 0in /  0.0mm 0 W/m2
01:51 31.5 °F /  -0.3 °C 29.7 °F /  -1.3 °C 30.3in /  1026.1hPa Calm   1mph /  1.6km/h 93% 0in /  0.0mm 0 W/m2
01:56 31.3 °F /  -0.4 °C 29.5 °F /  -1.4 °C 30.3in /  1026.1hPa West 0.9mph /  1.4km/h 1mph /  1.6km/h 93% 0in /  0.0mm 0 W/m2
02:01 31.3 °F /  -0.4 °C 29.5 °F /  -1.4 °C 30.3in /  1026.1hPa WNW 0.9mph /  1.4km/h 2mph /  3.2km/h 93% 0in /  0.0mm 0 W/m2
02:06 31.6 °F /  -0.2 °C 30.2 °F /  -1 °C 30.3in /  1026.1hPa WNW 0.9mph /  1.4km/h 2mph /  3.2km/h 94% 0in /  0.0mm 0 W/m2
02:11 31.8 °F /  -0.1 °C 30.4 °F /  -0.9 °C 30.3in /  1025.7hPa Calm   1mph /  1.6km/h 94% 0in /  0.0mm 0 W/m2
02:16 31.8 °F /  -0.1 °C 30.4 °F /  -0.9 °C 30.3in /  1026.1hPa Calm     94% 0in /  0.0mm 0 W/m2
02:21 31.8 °F /  -0.1 °C 30.4 °F /  -0.9 °C 30.3in /  1026.1hPa Calm   1mph /  1.6km/h 94% 0in /  0.0mm 0 W/m2
02:26 31.6 °F /  -0.2 °C 30.2 °F /  -1 °C 30.3in /  1026.1hPa Calm   1mph /  1.6km/h 94% 0in /  0.0mm 0 W/m2
02:31 31.8 °F /  -0.1 °C 30.4 °F /  -0.9 °C 30.3in /  1026.1hPa Calm   2mph /  3.2km/h 94% 0in /  0.0mm 0 W/m2
02:36 32.2 °F /  0.1 °C 30.6 °F /  -0.8 °C 30.3in /  1026.4hPa WSW 4mph /  6.4km/h 7mph /  11.3km/h 94% 0in /  0.0mm 0 W/m2
02:41 32.9 °F /  0.5 °C 31.6 °F /  -0.2 °C 30.3in /  1026.4hPa West 2.9mph /  4.7km/h 8mph /  12.9km/h 95% 0in /  0.0mm 0 W/m2
02:46 33.8 °F /  1 °C 32.5 °F /  0.3 °C 30.3in /  1026.4hPa West 2mph /  3.2km/h 9mph /  14.5km/h 95% 0in /  0.0mm 0 W/m2
02:51 34.3 °F /  1.3 °C 32.7 °F /  0.4 °C 30.3in /  1026.4hPa WSW 6mph /  9.7km/h 7mph /  11.3km/h 94% 0in /  0.0mm 0 W/m2
02:56 34.7 °F /  1.5 °C 32.9 °F /  0.5 °C 30.3in /  1026.1hPa West 2.9mph /  4.7km/h 9mph /  14.5km/h 93% 0in /  0.0mm 0 W/m2
03:01 35.1 °F /  1.7 °C 32.9 °F /  0.5 °C 30.3in /  1026.4hPa West 2.9mph /  4.7km/h 6mph /  9.7km/h 92% 0in /  0.0mm 0 W/m2
03:06 35.1 °F /  1.7 °C 32.7 °F /  0.4 °C 30.3in /  1026.1hPa West 4mph /  6.4km/h 6mph /  9.7km/h 91% 0in /  0.0mm 0 W/m2
03:11 35.2 °F /  1.8 °C 32.9 °F /  0.5 °C 30.3in /  1026.1hPa WNW 2.9mph /  4.7km/h 7mph /  11.3km/h 91% 0in /  0.0mm 0 W/m2
03:16 35.2 °F /  1.8 °C 32.5 °F /  0.3 °C 30.3in /  1026.1hPa WNW 4mph /  6.4km/h 7mph /  11.3km/h 90% 0in /  0.0mm 0 W/m2
03:21 35.1 °F /  1.7 °C 32.4 °F /  0.2 °C 30.3in /  1026.4hPa WSW 2.9mph /  4.7km/h 7mph /  11.3km/h 90% 0in /  0.0mm 0 W/m2
03:26 34.7 °F /  1.5 °C 32 °F /  0 °C 30.3in /  1026.1hPa WNW 2.9mph /  4.7km/h 5mph /  8km/h 90% 0in /  0.0mm 0 W/m2
03:31 34.5 °F /  1.4 °C 32.2 °F /  0.1 °C 30.3in /  1026.4hPa Calm   3mph /  4.8km/h 91% 0in /  0.0mm 0 W/m2
03:36 34.3 °F /  1.3 °C 32 °F /  0 °C 30.3in /  1026.4hPa WNW 2mph /  3.2km/h 4mph /  6.4km/h 91% 0in /  0.0mm 0 W/m2
03:41 34.3 °F /  1.3 °C 32 °F /  0 °C 30.3in /  1026.4hPa WSW 6mph /  9.7km/h 7mph /  11.3km/h 91% 0in /  0.0mm 0 W/m2
03:46 34.2 °F /  1.2 °C 31.8 °F /  -0.1 °C 30.3in /  1026.4hPa WNW 2mph /  3.2km/h 6mph /  9.7km/h 91% 0in /  0.0mm 0 W/m2
03:51 34 °F /  1.1 °C 31.6 °F /  -0.2 °C 30.3in /  1026.4hPa Calm     91% 0in /  0.0mm 0 W/m2
03:56 34 °F /  1.1 °C 31.8 °F /  -0.1 °C 30.3in /  1026.4hPa NNW 2mph /  3.2km/h 3mph /  4.8km/h 92% 0in /  0.0mm 0 W/m2
04:01 34 °F /  1.1 °C 31.8 °F /  -0.1 °C 30.3in /  1026.1hPa NW 0.9mph /  1.4km/h 2mph /  3.2km/h 92% 0in /  0.0mm 0 W/m2
04:06 33.8 °F /  1 °C 31.6 °F /  -0.2 °C 30.3in /  1026.1hPa WNW 2.9mph /  4.7km/h 8mph /  12.9km/h 92% 0in /  0.0mm 0 W/m2
04:11 34 °F /  1.1 °C 31.8 °F /  -0.1 °C 30.3in /  1026.1hPa WNW 2mph /  3.2km/h 3mph /  4.8km/h 92% 0in /  0.0mm 0 W/m2
04:16 34 °F /  1.1 °C 31.8 °F /  -0.1 °C 30.3in /  1026.1hPa WNW 0.9mph /  1.4km/h 8mph /  12.9km/h 92% 0in /  0.0mm 0 W/m2
04:21 33.8 °F /  1 °C 31.6 °F /  -0.2 °C 30.3in /  1026.1hPa NW 2mph /  3.2km/h 3mph /  4.8km/h 92% 0in /  0.0mm 0 W/m2
04:26 33.6 °F /  0.9 °C 31.5 °F /  -0.3 °C 30.3in /  1026.4hPa NW 0.9mph /  1.4km/h 3mph /  4.8km/h 92% 0in /  0.0mm 0 W/m2
04:31 33.4 °F /  0.8 °C 31.3 °F /  -0.4 °C 30.3in /  1026.4hPa West 2mph /  3.2km/h 4mph /  6.4km/h 92% 0in /  0.0mm 0 W/m2
04:36 33.3 °F /  0.7 °C 31.1 °F /  -0.5 °C 30.3in /  1026.4hPa West 2.9mph /  4.7km/h 4mph /  6.4km/h 92% 0in /  0.0mm 0 W/m2
04:41 33.1 °F /  0.6 °C 31.1 °F /  -0.5 °C 30.3in /  1026.4hPa West 4mph /  6.4km/h 4mph /  6.4km/h 92% 0in /  0.0mm 0 W/m2
04:46 33.1 °F /  0.6 °C 31.3 °F /  -0.4 °C 30.3in /  1026.4hPa NW 2mph /  3.2km/h 4mph /  6.4km/h 93% 0in /  0.0mm 0 W/m2
04:51 32.9 °F /  0.5 °C 31.1 °F /  -0.5 °C 30.3in /  1026.4hPa West 2mph /  3.2km/h 3mph /  4.8km/h 93% 0in /  0.0mm 0 W/m2
04:56 32.9 °F /  0.5 °C 31.1 °F /  -0.5 °C 30.3in /  1026.4hPa Calm   1mph /  1.6km/h 93% 0in /  0.0mm 0 W/m2
05:01 32.9 °F /  0.5 °C 31.1 °F /  -0.5 °C 30.3in /  1026.1hPa Calm   1mph /  1.6km/h 93% 0in /  0.0mm 0 W/m2
05:06 32.7 °F /  0.4 °C 30.9 °F /  -0.6 °C 30.3in /  1026.1hPa Calm     93% 0in /  0.0mm 0 W/m2
05:11 32.7 °F /  0.4 °C 30.9 °F /  -0.6 °C 30.3in /  1026.1hPa Calm     93% 0in /  0.0mm 0 W/m2
05:16 32.7 °F /  0.4 °C 30.9 °F /  -0.6 °C 30.3in /  1026.1hPa Calm   1mph /  1.6km/h 93% 0in /  0.0mm 0 W/m2
05:21 32.7 °F /  0.4 °C 30.9 °F /  -0.6 °C 30.3in /  1026.1hPa Calm   1mph /  1.6km/h 93% 0in /  0.0mm 0 W/m2
05:26 32.9 °F /  0.5 °C 31.3 °F /  -0.4 °C 30.3in /  1026.1hPa Calm   2mph /  3.2km/h 94% 0in /  0.0mm 0 W/m2
05:31 32.9 °F /  0.5 °C 31.3 °F /  -0.4 °C 30.3in /  1026.1hPa WNW 0.9mph /  1.4km/h 2mph /  3.2km/h 94% 0in /  0.0mm 0 W/m2
05:36 33.1 °F /  0.6 °C 31.5 °F /  -0.3 °C 30.3in /  1026.1hPa Calm   1mph /  1.6km/h 94% 0in /  0.0mm 0 W/m2
05:41 33.1 °F /  0.6 °C 31.5 °F /  -0.3 °C 30.3in /  1026.1hPa WNW 0.9mph /  1.4km/h 2mph /  3.2km/h 94% 0in /  0.0mm 0 W/m2
05:46 33.1 °F /  0.6 °C 31.5 °F /  -0.3 °C 30.3in /  1026.1hPa WNW 0.9mph /  1.4km/h 2mph /  3.2km/h 94% 0in /  0.0mm 0 W/m2
05:51 33.1 °F /  0.6 °C 31.5 °F /  -0.3 °C 30.3in /  1026.1hPa Calm     94% 0in /  0.0mm 0 W/m2
05:56 33.1 °F /  0.6 °C 31.5 °F /  -0.3 °C 30.3in /  1026.1hPa Calm   2mph /  3.2km/h 94% 0in /  0.0mm 0 W/m2
06:01 32.9 °F /  0.5 °C 31.1 °F /  -0.5 °C 30.3in /  1026.1hPa North 0.9mph /  1.4km/h 2mph /  3.2km/h 93% 0in /  0.0mm 0 W/m2
06:06 32.7 °F /  0.4 °C 31.1 °F /  -0.5 °C 30.3in /  1026.1hPa Calm   1mph /  1.6km/h 94% 0in /  0.0mm 0 W/m2
06:11 32.7 °F /  0.4 °C 31.1 °F /  -0.5 °C 30.3in /  1026.1hPa Calm     94% 0in /  0.0mm 0 W/m2
06:16 32.7 °F /  0.4 °C 31.1 °F /  -0.5 °C 30.3in /  1026.1hPa Calm   1mph /  1.6km/h 94% 0in /  0.0mm 0 W/m2
06:22 32.5 °F /  0.3 °C 30.9 °F /  -0.6 °C 30.3in /  1026.1hPa Calm   1mph /  1.6km/h 94% 0in /  0.0mm 0 W/m2
06:27 32.5 °F /  0.3 °C 30.9 °F /  -0.6 °C 30.3in /  1026.1hPa NW 0.9mph /  1.4km/h 1mph /  1.6km/h 94% 0in /  0.0mm 0 W/m2
06:32 32.7 °F /  0.4 °C 31.1 °F /  -0.5 °C 30.3in /  1026.1hPa NW 0.9mph /  1.4km/h 1mph /  1.6km/h 94% 0in /  0.0mm 0 W/m2
06:37 32.7 °F /  0.4 °C 31.1 °F /  -0.5 °C 30.3in /  1026.1hPa Calm   2mph /  3.2km/h 94% 0in /  0.0mm 0 W/m2
06:42 33.1 °F /  0.6 °C 31.5 °F /  -0.3 °C 30.3in /  1026.1hPa East 0.9mph /  1.4km/h 2mph /  3.2km/h 94% 0in /  0.0mm 0 W/m2
06:47 33.1 °F /  0.6 °C 31.8 °F /  -0.1 °C 30.3in /  1026.1hPa Calm   1mph /  1.6km/h 95% 0in /  0.0mm 0 W/m2
06:52 33.1 °F /  0.6 °C 31.8 °F /  -0.1 °C 30.3in /  1026.1hPa ESE 2mph /  3.2km/h 3mph /  4.8km/h 95% 0in /  0.0mm 0 W/m2
06:57 33.3 °F /  0.7 °C 32 °F /  0 °C 30.3in /  1026.1hPa Calm   1mph /  1.6km/h 95% 0in /  0.0mm 0 W/m2
07:02 33.3 °F /  0.7 °C 32 °F /  0 °C 30.3in /  1026.1hPa NNW 2mph /  3.2km/h 3mph /  4.8km/h 95% 0in /  0.0mm 0 W/m2
07:07 33.3 °F /  0.7 °C 32 °F /  0 °C 30.3in /  1025.7hPa Calm   1mph /  1.6km/h 95% 0in /  0.0mm 0 W/m2
07:12 33.3 °F /  0.7 °C 32 °F /  0 °C 30.3in /  1026.1hPa East 2mph /  3.2km/h 3mph /  4.8km/h 95% 0in /  0.0mm 0 W/m2
07:17 33.3 °F /  0.7 °C 32 °F /  0 °C 30.3in /  1026.1hPa Calm   1mph /  1.6km/h 95% 0in /  0.0mm 0 W/m2
07:22 33.3 °F /  0.7 °C 32 °F /  0 °C 30.3in /  1026.1hPa Calm   3mph /  4.8km/h 95% 0in /  0.0mm 0 W/m2
07:27 33.3 °F /  0.7 °C 32 °F /  0 °C 30.3in /  1026.1hPa Calm   2mph /  3.2km/h 95% 0in /  0.0mm 0 W/m2
07:32 33.4 °F /  0.8 °C 32.2 °F /  0.1 °C 30.3in /  1026.1hPa WSW 2mph /  3.2km/h 3mph /  4.8km/h 95% 0in /  0.0mm 0 W/m2
07:37 33.4 °F /  0.8 °C 32.2 °F /  0.1 °C 30.3in /  1026.1hPa SW 0.9mph /  1.4km/h 2mph /  3.2km/h 95% 0in /  0.0mm 0 W/m2
07:42 33.4 °F /  0.8 °C 32.2 °F /  0.1 °C 30.3in /  1026.1hPa Calm   4mph /  6.4km/h 95% 0in /  0.0mm 0 W/m2
07:47 33.4 °F /  0.8 °C 32.2 °F /  0.1 °C 30.3in /  1026.1hPa SE 0.9mph /  1.4km/h 3mph /  4.8km/h 95% 0in /  0.0mm 0 W/m2
07:52 33.4 °F /  0.8 °C 32.2 °F /  0.1 °C 30.3in /  1026.1hPa ESE 0.9mph /  1.4km/h 2mph /  3.2km/h 95% 0in /  0.0mm 0 W/m2
07:57 33.4 °F /  0.8 °C 32.2 °F /  0.1 °C 30.3in /  1025.7hPa ENE 2.9mph /  4.7km/h 3mph /  4.8km/h 95% 0in /  0.0mm 0 W/m2
08:02 33.4 °F /  0.8 °C 32.2 °F /  0.1 °C 30.3in /  1026.1hPa Calm   1mph /  1.6km/h 95% 0in /  0.0mm 0 W/m2
08:07 33.4 °F /  0.8 °C 32.2 °F /  0.1 °C 30.3in /  1026.1hPa Calm   2mph /  3.2km/h 95% 0in /  0.0mm 0 W/m2
08:12 33.4 °F /  0.8 °C 32.2 °F /  0.1 °C 30.3in /  1026.1hPa Calm     95% 0in /  0.0mm 0 W/m2
08:17 33.4 °F /  0.8 °C 32.2 °F /  0.1 °C 30.3in /  1026.1hPa Calm     95% 0in /  0.0mm 0 W/m2
08:22 33.4 °F /  0.8 °C 32.2 °F /  0.1 °C 30.3in /  1026.1hPa Calm     95% 0in /  0.0mm 0 W/m2
08:27 33.4 °F /  0.8 °C 32.2 °F /  0.1 °C 30.3in /  1026.1hPa West 0.9mph /  1.4km/h 2mph /  3.2km/h 95% 0in /  0.0mm 0 W/m2
08:32 33.4 °F /  0.8 °C 32.2 °F /  0.1 °C 30.3in /  1026.1hPa SW 0.9mph /  1.4km/h 1mph /  1.6km/h 95% 0in /  0.0mm 0 W/m2
08:37 33.4 °F /  0.8 °C 32.2 °F /  0.1 °C 30.3in /  1026.1hPa Calm   2mph /  3.2km/h 95% 0in /  0.0mm 0 W/m2
08:42 33.4 °F /  0.8 °C 32.2 °F /  0.1 °C 30.3in /  1026.1hPa West 2mph /  3.2km/h 3mph /  4.8km/h 95% 0in /  0.0mm 0 W/m2
08:47 33.4 °F /  0.8 °C 32.2 °F /  0.1 °C 30.3in /  1026.1hPa Calm     95% 0in /  0.0mm 5 W/m2
08:52 33.6 °F /  0.9 °C 32.4 °F /  0.2 °C 30.3in /  1026.4hPa ESE 2mph /  3.2km/h 2mph /  3.2km/h 95% 0in /  0.0mm 7 W/m2
08:57 33.6 °F /  0.9 °C 32.4 °F /  0.2 °C 30.3in /  1026.1hPa Calm   1mph /  1.6km/h 95% 0in /  0.0mm 7 W/m2
09:02 33.6 °F /  0.9 °C 32.4 °F /  0.2 °C 30.3in /  1026.4hPa Calm   1mph /  1.6km/h 95% 0in /  0.0mm 9 W/m2
09:07 33.6 °F /  0.9 °C 32.4 °F /  0.2 °C 30.3in /  1026.1hPa Calm     95% 0in /  0.0mm 11 W/m2
09:12 33.8 °F /  1 °C 32.5 °F /  0.3 °C 30.3in /  1026.4hPa ENE 0.9mph /  1.4km/h 1mph /  1.6km/h 95% 0in /  0.0mm 11 W/m2
09:17 33.8 °F /  1 °C 32.5 °F /  0.3 °C 30.3in /  1026.1hPa Calm   1mph /  1.6km/h 95% 0in /  0.0mm 12 W/m2
09:22 34 °F /  1.1 °C 32.7 °F /  0.4 °C 30.3in /  1026.4hPa WNW 2.9mph /  4.7km/h 3mph /  4.8km/h 95% 0in /  0.0mm 14 W/m2
09:27 34 °F /  1.1 °C 32.7 °F /  0.4 °C 30.3in /  1026.4hPa WNW 0.9mph /  1.4km/h 3mph /  4.8km/h 95% 0in /  0.0mm 14 W/m2
09:32 34.2 °F /  1.2 °C 32.9 °F /  0.5 °C 30.3in /  1026.4hPa NW 2mph /  3.2km/h 2mph /  3.2km/h 95% 0in /  0.0mm 18 W/m2
09:37 34.2 °F /  1.2 °C 32.9 °F /  0.5 °C 30.3in /  1026.4hPa WNW 2mph /  3.2km/h 4mph /  6.4km/h 95% 0in /  0.0mm 16 W/m2
09:42 34.2 °F /  1.2 °C 32.9 °F /  0.5 °C 30.3in /  1026.4hPa West 0.9mph /  1.4km/h 2mph /  3.2km/h 95% 0in /  0.0mm 16 W/m2
09:47 34.3 °F /  1.3 °C 33.1 °F /  0.6 °C 30.3in /  1026.4hPa Calm   2mph /  3.2km/h 95% 0in /  0.0mm 18 W/m2
09:52 34.3 °F /  1.3 °C 33.1 °F /  0.6 °C 30.3in /  1026.8hPa WNW 0.9mph /  1.4km/h 2mph /  3.2km/h 95% 0in /  0.0mm 12 W/m2
09:57 34.5 °F /  1.4 °C 33.3 °F /  0.7 °C 30.3in /  1026.8hPa WNW 2mph /  3.2km/h 3mph /  4.8km/h 95% 0in /  0.0mm 16 W/m2
10:02 34.5 °F /  1.4 °C 33.3 °F /  0.7 °C 30.3in /  1026.8hPa WNW 2.9mph /  4.7km/h 4mph /  6.4km/h 95% 0in /  0.0mm 16 W/m2
10:07 34.5 °F /  1.4 °C 33.3 °F /  0.7 °C 30.3in /  1026.8hPa West 2mph /  3.2km/h 5mph /  8km/h 95% 0in /  0.0mm 18 W/m2
10:12 34.5 °F /  1.4 °C 33.3 °F /  0.7 °C 30.3in /  1026.8hPa West 2mph /  3.2km/h 3mph /  4.8km/h 95% 0in /  0.0mm 19 W/m2
10:17 34.5 °F /  1.4 °C 33.3 °F /  0.7 °C 30.3in /  1026.8hPa West 2.9mph /  4.7km/h 5mph /  8km/h 95% 0in /  0.0mm 23 W/m2
10:22 34.5 °F /  1.4 °C 33.3 °F /  0.7 °C 30.3in /  1026.8hPa WNW 2.9mph /  4.7km/h 6mph /  9.7km/h 95% 0in /  0.0mm 30 W/m2
10:27 34.5 °F /  1.4 °C 33.3 °F /  0.7 °C 30.3in /  1026.8hPa WNW 2.9mph /  4.7km/h 6mph /  9.7km/h 95% 0in /  0.0mm 26 W/m2
Juneau County Weather
Compliments of Weather Underground - 2 mb